createdAt,value
2022-10-02T00:00:46.441Z,13.70
2022-10-02T00:03:21.370Z,13.80
2022-10-02T00:05:53.806Z,13.90
2022-10-02T00:08:28.442Z,13.80
2022-10-02T00:11:00.319Z,13.90
2022-10-02T00:13:34.430Z,13.90
2022-10-02T00:16:03.930Z,13.90
2022-10-02T00:18:35.397Z,13.90
2022-10-02T00:21:11.304Z,14.00
2022-10-02T00:23:43.618Z,14.00
2022-10-02T00:26:17.820Z,14.00
2022-10-02T00:28:53.034Z,14.00
2022-10-02T00:31:35.060Z,13.90
2022-10-02T00:34:19.806Z,13.80
2022-10-02T00:36:55.363Z,13.70
2022-10-02T00:39:42.862Z,13.70
2022-10-02T00:42:59.709Z,13.60
2022-10-02T00:45:41.361Z,13.70
2022-10-02T00:48:25.220Z,13.50
2022-10-02T00:51:03.587Z,13.30
2022-10-02T00:53:42.465Z,13.40
2022-10-02T00:56:22.016Z,13.20
2022-10-02T00:59:01.322Z,13.30
2022-10-02T01:01:41.446Z,13.40
2022-10-02T01:04:14.181Z,13.30
2022-10-02T01:06:42.838Z,13.30
2022-10-02T01:09:12.132Z,13.30
2022-10-02T01:11:41.879Z,13.30
2022-10-02T01:14:09.952Z,13.30
2022-10-02T01:16:39.598Z,13.30
2022-10-02T01:19:14.359Z,13.50
2022-10-02T01:21:46.457Z,13.60
2022-10-02T01:24:20.672Z,13.70
2022-10-02T01:26:49.954Z,13.70
2022-10-02T01:29:17.998Z,13.70
2022-10-02T01:31:46.042Z,13.70
2022-10-02T01:34:14.052Z,13.60
2022-10-02T01:36:42.297Z,13.60
2022-10-02T01:39:11.339Z,13.70
2022-10-02T01:41:43.849Z,13.60
2022-10-02T01:44:14.015Z,13.60
2022-10-02T01:46:54.338Z,13.60
2022-10-02T01:49:46.922Z,13.70
2022-10-02T01:52:23.877Z,13.60
2022-10-02T01:55:04.676Z,13.70
2022-10-02T01:57:48.978Z,13.60
2022-10-02T02:00:20.620Z,13.50
2022-10-02T02:02:54.624Z,13.50
2022-10-02T02:05:33.219Z,13.50
2022-10-02T02:08:09.858Z,13.60
2022-10-02T02:10:50.028Z,13.60
2022-10-02T02:13:23.235Z,13.40
2022-10-02T02:15:59.304Z,13.40
2022-10-02T02:18:33.593Z,13.40
2022-10-02T02:21:07.655Z,13.40
2022-10-02T02:23:39.022Z,13.40
2022-10-02T02:26:12.283Z,13.40
2022-10-02T02:28:44.366Z,13.30
2022-10-02T02:31:18.816Z,13.20
2022-10-02T02:33:51.490Z,13.40
2022-10-02T02:36:23.336Z,13.30
2022-10-02T02:38:56.140Z,13.20
2022-10-02T02:41:27.791Z,13.30
2022-10-02T02:44:01.431Z,13.30
2022-10-02T02:46:59.240Z,13.50
2022-10-02T02:49:30.021Z,13.30
2022-10-02T02:52:00.893Z,13.30
2022-10-02T02:54:37.132Z,13.40
2022-10-02T02:57:08.828Z,13.40
2022-10-02T02:59:40.237Z,13.40
2022-10-02T03:02:09.543Z,13.40
2022-10-02T03:04:37.791Z,13.50
2022-10-02T03:07:06.957Z,13.50
2022-10-02T03:09:35.672Z,13.40
2022-10-02T03:12:17.273Z,13.50
2022-10-02T03:14:57.668Z,13.40
2022-10-02T03:17:37.846Z,13.50
2022-10-02T03:20:13.955Z,13.60
2022-10-02T03:22:50.071Z,13.70
2022-10-02T03:25:24.545Z,13.70
2022-10-02T03:27:58.092Z,13.80
2022-10-02T03:30:27.229Z,13.80
2022-10-02T03:33:00.921Z,13.80
2022-10-02T03:35:30.177Z,13.70
2022-10-02T03:38:01.432Z,13.80
2022-10-02T03:40:29.606Z,13.80
2022-10-02T03:42:58.581Z,13.80
2022-10-02T03:45:49.300Z,13.80
2022-10-02T03:48:16.746Z,13.80
2022-10-02T03:50:44.997Z,13.80
2022-10-02T03:53:16.063Z,13.80
2022-10-02T03:55:47.644Z,13.70
2022-10-02T03:58:17.148Z,13.70
2022-10-02T04:00:52.025Z,13.80
2022-10-02T04:03:25.364Z,13.80
2022-10-02T04:06:00.383Z,13.70
2022-10-02T04:08:33.991Z,13.70
2022-10-02T04:11:08.095Z,13.70
2022-10-02T04:13:40.475Z,13.70
2022-10-02T04:16:13.109Z,13.60
2022-10-02T04:18:50.418Z,13.60
2022-10-02T04:21:30.695Z,13.60
2022-10-02T04:24:05.689Z,13.60
2022-10-02T04:26:38.565Z,13.70
2022-10-02T04:29:16.474Z,13.70
2022-10-02T04:31:45.584Z,13.80
2022-10-02T04:34:15.721Z,13.80
2022-10-02T04:36:59.625Z,13.80
2022-10-02T04:39:49.303Z,13.80
2022-10-02T04:42:28.110Z,13.80
2022-10-02T04:45:17.881Z,13.80
2022-10-02T04:48:02.815Z,13.80
2022-10-02T04:50:43.009Z,13.80
2022-10-02T04:53:43.478Z,13.70
2022-10-02T04:56:34.736Z,13.70
2022-10-02T04:59:14.106Z,13.80
2022-10-02T05:01:55.915Z,13.90
2022-10-02T05:05:05.461Z,13.90
2022-10-02T05:08:14.901Z,13.90
2022-10-02T05:11:05.432Z,13.90
2022-10-02T05:13:49.746Z,13.90
2022-10-02T05:16:32.797Z,13.90
2022-10-02T05:19:18.453Z,13.90
2022-10-02T05:22:05.075Z,13.90
2022-10-02T05:24:53.627Z,13.80
2022-10-02T05:27:51.437Z,13.70
2022-10-02T05:30:20.615Z,13.60
2022-10-02T05:33:38.608Z,13.70
2022-10-02T05:36:29.761Z,13.80
2022-10-02T05:39:05.212Z,13.70
2022-10-02T05:41:43.093Z,13.70
2022-10-02T05:44:16.662Z,13.80
2022-10-02T05:46:50.784Z,13.80
2022-10-02T05:49:21.629Z,13.80
2022-10-02T05:51:59.284Z,13.80
2022-10-02T05:54:37.199Z,13.80
2022-10-02T05:57:15.080Z,13.90
2022-10-02T05:59:49.205Z,13.90
2022-10-02T06:02:25.227Z,13.90
2022-10-02T06:05:01.729Z,14.00
2022-10-02T06:07:32.616Z,13.90
2022-10-02T06:10:07.299Z,14.00
2022-10-02T06:12:43.733Z,14.10
2022-10-02T06:15:22.846Z,14.00
2022-10-02T06:17:55.212Z,14.00
2022-10-02T06:20:29.171Z,14.10
2022-10-02T06:23:03.046Z,14.10
2022-10-02T06:25:34.845Z,14.10
2022-10-02T06:28:12.337Z,14.10
2022-10-02T06:30:42.894Z,14.10
2022-10-02T06:33:16.979Z,14.10
2022-10-02T06:36:15.673Z,14.00
2022-10-02T06:39:03.758Z,14.00
2022-10-02T06:41:41.608Z,14.00
2022-10-02T06:44:17.886Z,14.10
2022-10-02T06:46:58.010Z,14.00
2022-10-02T06:49:36.221Z,13.70
2022-10-02T06:52:16.607Z,13.80
2022-10-02T06:54:58.553Z,13.70
2022-10-02T06:57:40.081Z,13.90
2022-10-02T07:00:14.290Z,14.00
2022-10-02T07:03:18.871Z,14.00
2022-10-02T07:06:24.436Z,14.00
2022-10-02T07:09:13.548Z,14.00
2022-10-02T07:11:52.267Z,14.10
2022-10-02T07:14:36.370Z,14.10
2022-10-02T07:17:22.052Z,14.10
2022-10-02T07:20:16.862Z,14.10
2022-10-02T07:22:58.264Z,14.10
2022-10-02T07:25:43.928Z,14.10
2022-10-02T07:28:18.801Z,14.20
2022-10-02T07:30:55.017Z,14.20
2022-10-02T07:33:35.054Z,14.30
2022-10-02T07:36:11.082Z,14.30
2022-10-02T07:38:51.765Z,14.30
2022-10-02T07:41:59.514Z,14.30
2022-10-02T07:44:45.041Z,14.20
2022-10-02T07:47:26.940Z,14.30
2022-10-02T07:50:03.475Z,14.30
2022-10-02T07:52:42.599Z,14.30
2022-10-02T07:55:17.529Z,14.40
2022-10-02T07:57:53.435Z,14.40
2022-10-02T08:00:24.251Z,14.60
2022-10-02T08:02:56.204Z,14.60
2022-10-02T08:05:28.866Z,14.60
2022-10-02T08:08:01.443Z,14.70
2022-10-02T08:10:35.939Z,14.70
2022-10-02T08:13:11.066Z,14.70
2022-10-02T08:15:39.676Z,14.80
2022-10-02T08:18:33.662Z,14.90
2022-10-02T08:21:04.791Z,14.90
2022-10-02T08:23:39.019Z,14.90
2022-10-02T08:26:15.435Z,14.90
2022-10-02T08:28:50.431Z,15.00
2022-10-02T08:31:18.863Z,15.10
2022-10-02T08:33:46.806Z,15.10
2022-10-02T08:36:48.189Z,15.10
2022-10-02T08:39:34.516Z,15.20
2022-10-02T08:42:37.510Z,15.10
2022-10-02T08:45:45.172Z,15.20
2022-10-02T08:48:44.053Z,15.20
2022-10-02T08:52:04.779Z,15.30
2022-10-02T08:55:02.083Z,15.50
2022-10-02T08:57:56.725Z,15.50
2022-10-02T09:00:27.951Z,15.50
2022-10-02T09:03:34.676Z,15.50
2022-10-02T09:06:43.579Z,15.60
2022-10-02T09:09:46.685Z,15.60
2022-10-02T09:12:40.870Z,15.80
2022-10-02T09:15:17.114Z,15.80
2022-10-02T09:17:50.176Z,15.90
2022-10-02T09:20:41.901Z,16.00
2022-10-02T09:23:56.872Z,16.00
2022-10-02T09:26:37.963Z,16.20
2022-10-02T09:29:36.520Z,16.20
2022-10-02T09:32:43.402Z,16.30
2022-10-02T09:35:43.849Z,16.40
2022-10-02T09:38:48.474Z,16.50
2022-10-02T09:41:52.999Z,16.60
2022-10-02T09:44:44.886Z,16.60
2022-10-02T09:48:05.003Z,16.50
2022-10-02T09:50:52.250Z,16.60
2022-10-02T09:53:47.218Z,16.60
2022-10-02T09:56:51.419Z,16.60
2022-10-02T09:59:48.784Z,16.70
2022-10-02T10:02:39.133Z,16.70
2022-10-02T10:05:48.610Z,16.80
2022-10-02T10:08:42.153Z,16.90
2022-10-02T10:11:47.417Z,16.90
2022-10-02T10:15:09.640Z,17.10
2022-10-02T10:18:26.579Z,17.20
2022-10-02T10:21:31.697Z,17.40
2022-10-02T10:24:34.595Z,17.40
2022-10-02T10:27:49.609Z,17.50
2022-10-02T10:30:50.326Z,17.70
2022-10-02T10:33:50.255Z,17.80
2022-10-02T10:37:02.010Z,17.80
2022-10-02T10:39:54.684Z,18.00
2022-10-02T10:43:06.509Z,18.20
2022-10-02T10:46:02.917Z,18.30
2022-10-02T10:48:48.555Z,18.40
2022-10-02T10:51:30.691Z,18.50
2022-10-02T10:54:40.652Z,18.80
2022-10-02T10:57:23.846Z,19.00
2022-10-02T11:00:12.790Z,19.50
2022-10-02T11:03:05.505Z,19.80
2022-10-02T11:05:57.392Z,20.00
2022-10-02T11:08:47.529Z,20.10
2022-10-02T11:11:22.847Z,20.10
2022-10-02T11:14:12.869Z,19.80
2022-10-02T11:17:13.422Z,19.80
2022-10-02T11:20:02.751Z,19.70
2022-10-02T11:22:43.828Z,19.60
2022-10-02T11:25:28.450Z,19.40
2022-10-02T11:28:35.230Z,19.50
2022-10-02T11:31:22.429Z,19.50
2022-10-02T11:34:10.467Z,19.60
2022-10-02T11:36:52.644Z,19.80
2022-10-02T11:39:57.426Z,19.90
2022-10-02T11:42:42.139Z,20.00
2022-10-02T11:45:31.354Z,20.10
2022-10-02T11:48:32.110Z,20.20
2022-10-02T11:51:20.920Z,20.20
2022-10-02T11:54:17.086Z,20.30
2022-10-02T11:57:06.117Z,20.40
2022-10-02T11:59:54.894Z,20.40
2022-10-02T12:02:31.312Z,20.30
2022-10-02T12:05:16.365Z,20.40
2022-10-02T12:07:52.636Z,20.40
2022-10-02T12:10:41.398Z,20.40
2022-10-02T12:13:35.180Z,20.30
2022-10-02T12:16:12.711Z,20.30
2022-10-02T12:18:53.745Z,20.30
2022-10-02T12:21:51.537Z,20.20
2022-10-02T12:24:57.856Z,20.20
2022-10-02T12:27:42.719Z,20.10
2022-10-02T12:30:14.947Z,20.10
2022-10-02T12:33:29.996Z,20.20
2022-10-02T12:36:12.990Z,20.30
2022-10-02T12:39:01.390Z,20.30
2022-10-02T12:41:48.743Z,20.30
2022-10-02T12:44:34.380Z,20.30
2022-10-02T12:47:40.305Z,20.30
2022-10-02T12:50:23.627Z,20.30
2022-10-02T12:53:30.847Z,20.30
2022-10-02T12:56:40.567Z,20.50
2022-10-02T12:59:17.758Z,20.40
2022-10-02T13:02:49.223Z,20.50
2022-10-02T13:05:46.955Z,20.50
2022-10-02T13:08:41.256Z,20.60
2022-10-02T13:11:19.679Z,20.40
2022-10-02T13:14:09.665Z,20.30
2022-10-02T13:17:00.536Z,20.30
2022-10-02T13:19:36.830Z,20.40
2022-10-02T13:22:11.396Z,20.30
2022-10-02T13:25:00.745Z,20.00
2022-10-02T13:27:38.007Z,19.80
2022-10-02T13:30:14.230Z,19.40
2022-10-02T13:33:08.715Z,18.70
2022-10-02T13:35:53.968Z,17.70
2022-10-02T13:38:43.951Z,16.80
2022-10-02T13:41:25.652Z,16.50
2022-10-02T13:44:03.291Z,16.00
2022-10-02T13:46:45.188Z,15.80
2022-10-02T13:49:25.198Z,15.70
2022-10-02T13:51:59.373Z,15.60
2022-10-02T13:54:51.169Z,15.50
2022-10-02T13:57:38.094Z,15.40
2022-10-02T14:00:14.266Z,15.30
2022-10-02T14:03:03.810Z,15.20
2022-10-02T14:05:43.328Z,15.00
2022-10-02T14:08:28.513Z,15.00
2022-10-02T14:11:06.720Z,15.10
2022-10-02T14:13:46.715Z,15.00
2022-10-02T14:16:32.826Z,15.00
2022-10-02T14:19:31.950Z,14.90
2022-10-02T14:22:19.520Z,14.80
2022-10-02T14:25:10.221Z,14.70
2022-10-02T14:28:02.409Z,14.60
2022-10-02T14:30:38.782Z,14.60
2022-10-02T14:33:16.918Z,14.50
2022-10-02T14:36:02.499Z,14.50
2022-10-02T14:38:46.720Z,14.40
2022-10-02T14:41:49.356Z,14.40
2022-10-02T14:44:43.276Z,14.30
2022-10-02T14:47:21.116Z,14.40
2022-10-02T14:50:11.712Z,14.40
2022-10-02T14:53:04.050Z,14.30
2022-10-02T14:56:08.055Z,14.50
2022-10-02T14:58:49.226Z,14.50
2022-10-02T15:01:24.411Z,14.50
2022-10-02T15:04:23.174Z,14.40
2022-10-02T15:07:04.445Z,14.50
2022-10-02T15:09:41.266Z,14.30
2022-10-02T15:12:16.044Z,14.20
2022-10-02T15:14:57.295Z,14.20
2022-10-02T15:17:47.275Z,14.10
2022-10-02T15:20:26.173Z,14.10
2022-10-02T15:22:59.705Z,14.20
2022-10-02T15:25:49.336Z,14.10
2022-10-02T15:28:37.221Z,14.00
2022-10-02T15:31:17.096Z,13.90
2022-10-02T15:33:50.646Z,13.90
2022-10-02T15:36:44.551Z,13.80
2022-10-02T15:39:34.015Z,13.80
2022-10-02T15:42:06.834Z,13.80
2022-10-02T15:45:02.624Z,13.90
2022-10-02T15:47:53.251Z,14.00
2022-10-02T15:50:30.373Z,13.80
2022-10-02T15:53:18.952Z,13.80
2022-10-02T15:55:52.590Z,13.70
2022-10-02T15:58:33.845Z,13.80
2022-10-02T16:01:29.443Z,13.60
2022-10-02T16:04:07.913Z,13.60
2022-10-02T16:06:53.482Z,13.60
2022-10-02T16:09:38.282Z,13.60
2022-10-02T16:12:29.695Z,13.60
2022-10-02T16:15:08.672Z,13.80
2022-10-02T16:17:58.072Z,13.80
2022-10-02T16:20:38.528Z,13.80
2022-10-02T16:23:25.267Z,13.80
2022-10-02T16:26:06.922Z,13.90
2022-10-02T16:28:46.979Z,13.90
2022-10-02T16:31:37.416Z,13.90
2022-10-02T16:34:18.350Z,13.90
2022-10-02T16:36:53.496Z,14.00
2022-10-02T16:39:38.783Z,14.10
2022-10-02T16:42:21.327Z,14.20
2022-10-02T16:45:25.937Z,14.20
2022-10-02T16:48:01.818Z,14.00
2022-10-02T16:50:46.470Z,14.10
2022-10-02T16:53:25.965Z,14.00
2022-10-02T16:56:06.459Z,13.90
2022-10-02T16:58:43.781Z,13.90
2022-10-02T17:01:25.440Z,13.80
2022-10-02T17:04:16.392Z,13.70
2022-10-02T17:06:50.950Z,13.80
2022-10-02T17:09:24.993Z,13.80
2022-10-02T17:11:57.501Z,13.90
2022-10-02T17:14:38.194Z,13.90
2022-10-02T17:17:15.818Z,13.90
2022-10-02T17:19:47.880Z,13.90
2022-10-02T17:22:33.594Z,13.90
2022-10-02T17:25:17.068Z,13.90
2022-10-02T17:27:52.888Z,13.80
2022-10-02T17:30:24.376Z,13.80
2022-10-02T17:33:05.604Z,13.90
2022-10-02T17:35:45.101Z,13.90
2022-10-02T17:38:46.088Z,13.80
2022-10-02T17:41:30.364Z,13.80
2022-10-02T17:44:10.653Z,13.80
2022-10-02T17:47:00.188Z,13.80
2022-10-02T17:49:39.006Z,13.80
2022-10-02T17:52:35.975Z,13.80
2022-10-02T17:55:39.586Z,13.80
2022-10-02T17:58:17.501Z,13.80
2022-10-02T18:01:00.743Z,13.80
2022-10-02T18:03:51.423Z,13.90
2022-10-02T18:06:28.443Z,13.80
2022-10-02T18:09:19.025Z,13.80
2022-10-02T18:12:25.601Z,13.80
2022-10-02T18:15:24.608Z,13.70
2022-10-02T18:18:12.610Z,13.70
2022-10-02T18:20:53.549Z,13.70
2022-10-02T18:23:37.242Z,13.70
2022-10-02T18:26:19.413Z,13.80
2022-10-02T18:29:14.937Z,13.60
2022-10-02T18:32:17.296Z,13.70
2022-10-02T18:34:59.282Z,13.70
2022-10-02T18:37:47.691Z,13.70
2022-10-02T18:40:23.391Z,13.70
2022-10-02T18:43:21.085Z,13.80
2022-10-02T18:46:00.381Z,13.70
2022-10-02T18:48:52.942Z,13.70
2022-10-02T18:51:41.943Z,13.80
2022-10-02T18:54:22.467Z,13.70
2022-10-02T18:57:06.275Z,13.80
2022-10-02T18:59:49.182Z,13.80
2022-10-02T19:02:33.738Z,13.80
2022-10-02T19:05:22.737Z,13.80
2022-10-02T19:07:55.249Z,13.80
2022-10-02T19:10:29.143Z,13.80
2022-10-02T19:13:02.415Z,13.80
2022-10-02T19:15:32.526Z,13.80
2022-10-02T19:18:03.546Z,13.90
2022-10-02T19:20:55.028Z,13.90
2022-10-02T19:23:36.577Z,13.90
2022-10-02T19:26:15.927Z,13.90
2022-10-02T19:28:47.325Z,13.90
2022-10-02T19:31:22.084Z,14.00
2022-10-02T19:33:54.491Z,13.80
2022-10-02T19:36:26.833Z,13.80
2022-10-02T19:38:57.662Z,13.90
2022-10-02T19:41:26.595Z,13.80
2022-10-02T19:43:59.892Z,13.80
2022-10-02T19:46:37.175Z,13.90
2022-10-02T19:49:07.340Z,13.90
2022-10-02T19:51:45.531Z,13.90
2022-10-02T19:54:19.806Z,13.80
2022-10-02T19:56:48.461Z,13.70
2022-10-02T19:59:20.005Z,13.70
2022-10-02T20:01:52.744Z,13.70
2022-10-02T20:04:22.522Z,13.70
2022-10-02T20:06:56.475Z,13.60
2022-10-02T20:09:30.728Z,13.60
2022-10-02T20:12:05.640Z,13.60
2022-10-02T20:14:40.864Z,13.50
2022-10-02T20:17:10.543Z,13.40
2022-10-02T20:19:43.375Z,13.30
2022-10-02T20:22:34.185Z,13.30
2022-10-02T20:25:09.236Z,13.30
2022-10-02T20:27:44.218Z,13.30
2022-10-02T20:30:16.734Z,13.30
2022-10-02T20:32:53.495Z,13.40
2022-10-02T20:35:29.097Z,13.40
2022-10-02T20:38:02.573Z,13.30
2022-10-02T20:40:34.847Z,13.40
2022-10-02T20:43:07.424Z,13.40
2022-10-02T20:45:41.121Z,13.40
2022-10-02T20:49:07.591Z,13.50
2022-10-02T20:52:10.939Z,13.40
2022-10-02T20:54:55.031Z,13.40
2022-10-02T20:58:01.416Z,13.40
2022-10-02T21:00:44.213Z,13.40
2022-10-02T21:03:37.804Z,13.30
2022-10-02T21:06:35.569Z,13.30
2022-10-02T21:09:31.322Z,13.30
2022-10-02T21:12:33.107Z,13.20
2022-10-02T21:15:39.604Z,13.20
2022-10-02T21:18:26.326Z,13.10
2022-10-02T21:21:40.123Z,13.00
2022-10-02T21:24:33.658Z,13.00
2022-10-02T21:27:45.952Z,13.00
2022-10-02T21:30:17.407Z,13.00
2022-10-02T21:33:05.068Z,13.00
2022-10-02T21:35:50.221Z,13.10
2022-10-02T21:39:06.804Z,13.10
2022-10-02T21:42:31.863Z,13.10
2022-10-02T21:45:45.228Z,13.10
2022-10-02T21:49:02.572Z,13.20
2022-10-02T21:51:57.790Z,13.30
2022-10-02T21:55:05.332Z,13.20
2022-10-02T21:58:04.170Z,13.20
2022-10-02T22:00:32.354Z,13.20
2022-10-02T22:03:32.784Z,13.20
2022-10-02T22:06:37.683Z,13.20
2022-10-02T22:09:35.305Z,13.10
2022-10-02T22:12:16.817Z,13.10
2022-10-02T22:14:52.967Z,13.10
2022-10-02T22:17:27.901Z,13.10
2022-10-02T22:20:22.556Z,13.20
2022-10-02T22:23:08.982Z,13.20
2022-10-02T22:25:52.992Z,13.20
2022-10-02T22:28:28.943Z,13.20
2022-10-02T22:31:27.263Z,13.30
2022-10-02T22:34:17.252Z,13.20
2022-10-02T22:37:18.914Z,13.20
2022-10-02T22:39:54.091Z,13.20
2022-10-02T22:42:25.504Z,13.20
2022-10-02T22:44:58.472Z,13.20
2022-10-02T22:47:32.187Z,13.30
2022-10-02T22:50:04.474Z,13.30
2022-10-02T22:52:42.759Z,13.30
2022-10-02T22:55:14.449Z,13.30
2022-10-02T22:57:48.276Z,13.40
2022-10-02T23:00:19.975Z,13.30
2022-10-02T23:02:56.177Z,13.30
2022-10-02T23:05:32.972Z,13.30
2022-10-02T23:08:12.373Z,13.30
2022-10-02T23:10:45.018Z,13.30
2022-10-02T23:13:20.705Z,13.20
2022-10-02T23:15:55.330Z,13.20
2022-10-02T23:18:32.795Z,13.20
2022-10-02T23:21:07.753Z,13.30
2022-10-02T23:23:51.030Z,13.10
2022-10-02T23:26:27.452Z,13.20
2022-10-02T23:29:13.201Z,13.10
2022-10-02T23:31:49.669Z,13.20
2022-10-02T23:34:26.723Z,13.10
2022-10-02T23:37:01.412Z,13.00
2022-10-02T23:39:37.905Z,13.00
2022-10-02T23:42:09.654Z,13.00
2022-10-02T23:44:43.196Z,13.10
2022-10-02T23:47:20.947Z,13.10
2022-10-02T23:49:51.082Z,13.10
2022-10-02T23:52:43.463Z,13.00
2022-10-02T23:55:27.545Z,13.00
2022-10-02T23:58:20.652Z,13.00
